sensor_id;sensor_type;location;lat;lon;timestamp;P1;durP1;ratioP1;P2;durP2;ratioP2
51877;SDS011;37911;51.526;11.536;2024-01-15T00:02:16;17.08;;;8.80;;
51877;SDS011;37911;51.526;11.536;2024-01-15T00:05:19;11.73;;;9.20;;
51877;SDS011;37911;51.526;11.536;2024-01-15T00:08:23;12.27;;;8.98;;
51877;SDS011;37911;51.526;11.536;2024-01-15T00:11:28;13.98;;;9.73;;
51877;SDS011;37911;51.526;11.536;2024-01-15T00:14:32;14.77;;;7.90;;
51877;SDS011;37911;51.526;11.536;2024-01-15T00:17:35;14.23;;;8.20;;
51877;SDS011;37911;51.526;11.536;2024-01-15T00:20:39;12.30;;;8.13;;
51877;SDS011;37911;51.526;11.536;2024-01-15T00:23:42;12.35;;;8.55;;
51877;SDS011;37911;51.526;11.536;2024-01-15T00:26:49;16.60;;;9.07;;
51877;SDS011;37911;51.526;11.536;2024-01-15T00:29:53;14.65;;;9.35;;
51877;SDS011;37911;51.526;11.536;2024-01-15T00:32:56;13.65;;;8.63;;
51877;SDS011;37911;51.526;11.536;2024-01-15T00:36:00;17.08;;;8.00;;
51877;SDS011;37911;51.526;11.536;2024-01-15T00:39:03;13.07;;;8.68;;
51877;SDS011;37911;51.526;11.536;2024-01-15T00:42:10;13.48;;;8.73;;
51877;SDS011;37911;51.526;11.536;2024-01-15T00:45:13;14.32;;;9.35;;
51877;SDS011;37911;51.526;11.536;2024-01-15T00:48:17;13.38;;;8.32;;
51877;SDS011;37911;51.526;11.536;2024-01-15T00:51:20;14.75;;;8.68;;
51877;SDS011;37911;51.526;11.536;2024-01-15T00:54:23;12.70;;;7.78;;
51877;SDS011;37911;51.526;11.536;2024-01-15T00:57:29;13.18;;;8.50;;
51877;SDS011;37911;51.526;11.536;2024-01-15T01:00:33;13.52;;;7.57;;
51877;SDS011;37911;51.526;11.536;2024-01-15T01:03:36;14.48;;;8.05;;
51877;SDS011;37911;51.526;11.536;2024-01-15T01:06:39;13.43;;;9.18;;
51877;SDS011;37911;51.526;11.536;2024-01-15T01:09:43;12.43;;;8.70;;
51877;SDS011;37911;51.526;11.536;2024-01-15T01:12:49;10.55;;;7.25;;
51877;SDS011;37911;51.526;11.536;2024-01-15T01:15:52;10.95;;;7.93;;
51877;SDS011;37911;51.526;11.536;2024-01-15T01:18:55;13.32;;;9.18;;
51877;SDS011;37911;51.526;11.536;2024-01-15T01:21:58;12.75;;;8.40;;
51877;SDS011;37911;51.526;11.536;2024-01-15T01:25:02;15.48;;;9.18;;
51877;SDS011;37911;51.526;11.536;2024-01-15T01:28:08;17.98;;;10.73;;
51877;SDS011;37911;51.526;11.536;2024-01-15T01:31:11;17.05;;;9.13;;
51877;SDS011;37911;51.526;11.536;2024-01-15T01:34:16;16.63;;;10.55;;
51877;SDS011;37911;51.526;11.536;2024-01-15T01:37:20;15.65;;;9.52;;
51877;SDS011;37911;51.526;11.536;2024-01-15T01:40:23;17.52;;;9.65;;
51877;SDS011;37911;51.526;11.536;2024-01-15T01:43:29;16.20;;;10.98;;
51877;SDS011;37911;51.526;11.536;2024-01-15T01:46:32;13.45;;;8.70;;
51877;SDS011;37911;51.526;11.536;2024-01-15T01:49:39;17.38;;;9.10;;
51877;SDS011;37911;51.526;11.536;2024-01-15T01:52:44;16.65;;;9.88;;
51877;SDS011;37911;51.526;11.536;2024-01-15T01:55:47;20.02;;;9.13;;
51877;SDS011;37911;51.526;11.536;2024-01-15T01:58:53;14.60;;;9.63;;
51877;SDS011;37911;51.526;11.536;2024-01-15T02:01:57;18.98;;;10.32;;
51877;SDS011;37911;51.526;11.536;2024-01-15T02:05:04;15.65;;;9.27;;
51877;SDS011;37911;51.526;11.536;2024-01-15T02:08:08;16.77;;;9.32;;
51877;SDS011;37911;51.526;11.536;2024-01-15T02:11:12;20.63;;;10.20;;
51877;SDS011;37911;51.526;11.536;2024-01-15T02:14:17;19.88;;;9.38;;
51877;SDS011;37911;51.526;11.536;2024-01-15T02:17:21;13.52;;;8.10;;
51877;SDS011;37911;51.526;11.536;2024-01-15T02:20:25;12.85;;;8.85;;
51877;SDS011;37911;51.526;11.536;2024-01-15T02:23:31;16.65;;;9.40;;
51877;SDS011;37911;51.526;11.536;2024-01-15T02:26:34;14.73;;;10.48;;
51877;SDS011;37911;51.526;11.536;2024-01-15T02:29:38;15.57;;;8.70;;
51877;SDS011;37911;51.526;11.536;2024-01-15T02:32:42;13.20;;;7.45;;
51877;SDS011;37911;51.526;11.536;2024-01-15T02:35:45;12.95;;;7.97;;
51877;SDS011;37911;51.526;11.536;2024-01-15T02:38:52;13.88;;;8.73;;
51877;SDS011;37911;51.526;11.536;2024-01-15T02:41:56;11.10;;;7.55;;
51877;SDS011;37911;51.526;11.536;2024-01-15T02:44:59;13.50;;;8.13;;
51877;SDS011;37911;51.526;11.536;2024-01-15T02:48:02;12.52;;;8.25;;
51877;SDS011;37911;51.526;11.536;2024-01-15T02:51:06;12.73;;;5.93;;
51877;SDS011;37911;51.526;11.536;2024-01-15T02:54:12;14.77;;;7.13;;
51877;SDS011;37911;51.526;11.536;2024-01-15T02:57:15;12.02;;;8.43;;
51877;SDS011;37911;51.526;11.536;2024-01-15T03:00:19;14.50;;;7.55;;
51877;SDS011;37911;51.526;11.536;2024-01-15T03:03:22;11.32;;;7.55;;
51877;SDS011;37911;51.526;11.536;2024-01-15T03:06:25;10.52;;;7.22;;
51877;SDS011;37911;51.526;11.536;2024-01-15T03:09:31;9.63;;;6.47;;
51877;SDS011;37911;51.526;11.536;2024-01-15T03:12:34;7.82;;;5.35;;
51877;SDS011;37911;51.526;11.536;2024-01-15T03:15:38;12.00;;;8.20;;
51877;SDS011;37911;51.526;11.536;2024-01-15T03:18:42;11.27;;;7.47;;
51877;SDS011;37911;51.526;11.536;2024-01-15T03:21:45;13.82;;;6.68;;
51877;SDS011;37911;51.526;11.536;2024-01-15T03:24:52;13.13;;;5.90;;
51877;SDS011;37911;51.526;11.536;2024-01-15T03:27:55;13.05;;;7.10;;
51877;SDS011;37911;51.526;11.536;2024-01-15T03:30:58;14.25;;;5.65;;
51877;SDS011;37911;51.526;11.536;2024-01-15T03:34:02;9.32;;;5.65;;
51877;SDS011;37911;51.526;11.536;2024-01-15T03:37:05;12.07;;;7.78;;
51877;SDS011;37911;51.526;11.536;2024-01-15T03:40:12;9.13;;;6.43;;
51877;SDS011;37911;51.526;11.536;2024-01-15T03:43:15;10.38;;;5.82;;
51877;SDS011;37911;51.526;11.536;2024-01-15T03:46:18;9.13;;;5.85;;
51877;SDS011;37911;51.526;11.536;2024-01-15T03:49:22;7.00;;;5.28;;
51877;SDS011;37911;51.526;11.536;2024-01-15T03:52:25;9.27;;;4.78;;
51877;SDS011;37911;51.526;11.536;2024-01-15T03:55:31;7.38;;;5.28;;
51877;SDS011;37911;51.526;11.536;2024-01-15T03:58:35;6.15;;;4.88;;
51877;SDS011;37911;51.526;11.536;2024-01-15T04:01:38;7.97;;;5.90;;
51877;SDS011;37911;51.526;11.536;2024-01-15T04:04:42;6.32;;;4.82;;
51877;SDS011;37911;51.526;11.536;2024-01-15T04:07:45;6.03;;;4.57;;
51877;SDS011;37911;51.526;11.536;2024-01-15T04:10:51;6.72;;;4.53;;
51877;SDS011;37911;51.526;11.536;2024-01-15T04:13:55;6.80;;;4.47;;
51877;SDS011;37911;51.526;11.536;2024-01-15T04:16:58;6.25;;;3.95;;
51877;SDS011;37911;51.526;11.536;2024-01-15T04:20:01;7.10;;;5.20;;
51877;SDS011;37911;51.526;11.536;2024-01-15T04:23:05;6.63;;;4.05;;
51877;SDS011;37911;51.526;11.536;2024-01-15T04:26:11;10.13;;;6.18;;
51877;SDS011;37911;51.526;11.536;2024-01-15T04:29:14;10.77;;;5.18;;
51877;SDS011;37911;51.526;11.536;2024-01-15T04:32:18;8.93;;;3.83;;
51877;SDS011;37911;51.526;11.536;2024-01-15T04:35:21;6.47;;;3.75;;
51877;SDS011;37911;51.526;11.536;2024-01-15T04:38:25;6.10;;;3.33;;
51877;SDS011;37911;51.526;11.536;2024-01-15T04:41:30;7.15;;;3.17;;
51877;SDS011;37911;51.526;11.536;2024-01-15T04:44:34;5.55;;;4.03;;
51877;SDS011;37911;51.526;11.536;2024-01-15T04:47:37;3.88;;;2.92;;
51877;SDS011;37911;51.526;11.536;2024-01-15T04:50:40;5.60;;;3.30;;
51877;SDS011;37911;51.526;11.536;2024-01-15T04:53:44;5.45;;;3.42;;
51877;SDS011;37911;51.526;11.536;2024-01-15T04:56:50;4.68;;;2.40;;
51877;SDS011;37911;51.526;11.536;2024-01-15T04:59:53;5.78;;;2.78;;
51877;SDS011;37911;51.526;11.536;2024-01-15T05:02:56;2.97;;;2.60;;
51877;SDS011;37911;51.526;11.536;2024-01-15T05:05:59;5.90;;;3.00;;
51877;SDS011;37911;51.526;11.536;2024-01-15T05:09:03;5.75;;;2.95;;
51877;SDS011;37911;51.526;11.536;2024-01-15T05:12:09;6.72;;;3.78;;
51877;SDS011;37911;51.526;11.536;2024-01-15T05:15:13;6.57;;;3.75;;
51877;SDS011;37911;51.526;11.536;2024-01-15T05:18:17;5.15;;;3.45;;
51877;SDS011;37911;51.526;11.536;2024-01-15T05:21:20;6.80;;;3.55;;
51877;SDS011;37911;51.526;11.536;2024-01-15T05:24:23;6.63;;;3.22;;
51877;SDS011;37911;51.526;11.536;2024-01-15T05:27:29;4.15;;;2.90;;
51877;SDS011;37911;51.526;11.536;2024-01-15T05:30:33;3.95;;;3.28;;
51877;SDS011;37911;51.526;11.536;2024-01-15T05:33:36;5.45;;;3.20;;
51877;SDS011;37911;51.526;11.536;2024-01-15T05:36:40;3.70;;;3.03;;
51877;SDS011;37911;51.526;11.536;2024-01-15T05:39:43;4.43;;;2.38;;
51877;SDS011;37911;51.526;11.536;2024-01-15T05:42:49;4.68;;;3.13;;
51877;SDS011;37911;51.526;11.536;2024-01-15T05:45:53;4.53;;;3.90;;
51877;SDS011;37911;51.526;11.536;2024-01-15T05:48:56;5.20;;;3.83;;
51877;SDS011;37911;51.526;11.536;2024-01-15T05:51:59;7.63;;;3.80;;
51877;SDS011;37911;51.526;11.536;2024-01-15T05:55:03;8.27;;;4.45;;
51877;SDS011;37911;51.526;11.536;2024-01-15T05:58:09;7.68;;;4.78;;
51877;SDS011;37911;51.526;11.536;2024-01-15T06:01:13;8.30;;;4.00;;
51877;SDS011;37911;51.526;11.536;2024-01-15T06:04:16;6.63;;;4.13;;
51877;SDS011;37911;51.526;11.536;2024-01-15T06:07:19;4.63;;;3.40;;
51877;SDS011;37911;51.526;11.536;2024-01-15T06:10:23;5.13;;;2.95;;
51877;SDS011;37911;51.526;11.536;2024-01-15T06:13:29;4.72;;;2.60;;
51877;SDS011;37911;51.526;11.536;2024-01-15T06:16:32;5.15;;;4.18;;
51877;SDS011;37911;51.526;11.536;2024-01-15T06:19:35;3.95;;;2.78;;
51877;SDS011;37911;51.526;11.536;2024-01-15T06:22:39;4.25;;;3.13;;
51877;SDS011;37911;51.526;11.536;2024-01-15T06:25:42;8.45;;;4.13;;
51877;SDS011;37911;51.526;11.536;2024-01-15T06:28:48;5.78;;;4.10;;
51877;SDS011;37911;51.526;11.536;2024-01-15T06:31:52;5.53;;;3.47;;
51877;SDS011;37911;51.526;11.536;2024-01-15T06:34:55;6.57;;;3.35;;
51877;SDS011;37911;51.526;11.536;2024-01-15T06:37:58;6.93;;;3.45;;
51877;SDS011;37911;51.526;11.536;2024-01-15T06:41:02;9.40;;;3.03;;
51877;SDS011;37911;51.526;11.536;2024-01-15T06:44:08;7.07;;;3.85;;
51877;SDS011;37911;51.526;11.536;2024-01-15T06:47:11;5.60;;;3.67;;
51877;SDS011;37911;51.526;11.536;2024-01-15T06:50:14;11.02;;;3.45;;
51877;SDS011;37911;51.526;11.536;2024-01-15T06:53:18;4.88;;;3.33;;
51877;SDS011;37911;51.526;11.536;2024-01-15T06:56:22;5.55;;;3.47;;
51877;SDS011;37911;51.526;11.536;2024-01-15T06:59:27;5.43;;;4.47;;
51877;SDS011;37911;51.526;11.536;2024-01-15T07:02:31;5.63;;;3.90;;
51877;SDS011;37911;51.526;11.536;2024-01-15T07:05:34;6.38;;;3.33;;
51877;SDS011;37911;51.526;11.536;2024-01-15T07:08:38;4.60;;;3.92;;
51877;SDS011;37911;51.526;11.536;2024-01-15T07:11:43;9.35;;;5.28;;
51877;SDS011;37911;51.526;11.536;2024-01-15T07:14:50;7.20;;;3.97;;
51877;SDS011;37911;51.526;11.536;2024-01-15T07:17:53;7.60;;;4.10;;
51877;SDS011;37911;51.526;11.536;2024-01-15T07:20:56;6.70;;;5.57;;
51877;SDS011;37911;51.526;11.536;2024-01-15T07:24:04;5.45;;;4.45;;
51877;SDS011;37911;51.526;11.536;2024-01-15T07:27:07;8.70;;;5.18;;
51877;SDS011;37911;51.526;11.536;2024-01-15T07:30:14;4.47;;;2.90;;
51877;SDS011;37911;51.526;11.536;2024-01-15T07:33:17;8.65;;;4.40;;
51877;SDS011;37911;51.526;11.536;2024-01-15T07:36:20;6.80;;;3.55;;
51877;SDS011;37911;51.526;11.536;2024-01-15T07:39:24;4.53;;;3.13;;
51877;SDS011;37911;51.526;11.536;2024-01-15T07:42:29;5.50;;;3.40;;
51877;SDS011;37911;51.526;11.536;2024-01-15T07:45:37;7.43;;;3.47;;
51877;SDS011;37911;51.526;11.536;2024-01-15T07:48:40;5.55;;;3.28;;
51877;SDS011;37911;51.526;11.536;2024-01-15T07:51:44;7.00;;;4.15;;
51877;SDS011;37911;51.526;11.536;2024-01-15T07:54:47;11.55;;;7.82;;
51877;SDS011;37911;51.526;11.536;2024-01-15T07:57:50;6.65;;;5.18;;
51877;SDS011;37911;51.526;11.536;2024-01-15T08:01:01;6.65;;;3.50;;
51877;SDS011;37911;51.526;11.536;2024-01-15T08:04:06;15.48;;;9.50;;
51877;SDS011;37911;51.526;11.536;2024-01-15T08:07:12;7.13;;;4.32;;
51877;SDS011;37911;51.526;11.536;2024-01-15T08:10:16;6.90;;;5.82;;
51877;SDS011;37911;51.526;11.536;2024-01-15T08:13:19;5.78;;;3.25;;
51877;SDS011;37911;51.526;11.536;2024-01-15T08:16:25;5.55;;;4.53;;
51877;SDS011;37911;51.526;11.536;2024-01-15T08:19:29;7.00;;;4.72;;
51877;SDS011;37911;51.526;11.536;2024-01-15T08:22:32;5.70;;;4.05;;
51877;SDS011;37911;51.526;11.536;2024-01-15T08:25:35;4.40;;;3.75;;
51877;SDS011;37911;51.526;11.536;2024-01-15T08:28:39;7.13;;;4.07;;
51877;SDS011;37911;51.526;11.536;2024-01-15T08:31:45;5.43;;;4.20;;
51877;SDS011;37911;51.526;11.536;2024-01-15T08:34:48;6.22;;;4.38;;
51877;SDS011;37911;51.526;11.536;2024-01-15T08:37:52;7.25;;;4.88;;
51877;SDS011;37911;51.526;11.536;2024-01-15T08:40:55;7.22;;;4.35;;
51877;SDS011;37911;51.526;11.536;2024-01-15T08:44:02;5.50;;;4.97;;
51877;SDS011;37911;51.526;11.536;2024-01-15T08:47:08;5.90;;;3.85;;
51877;SDS011;37911;51.526;11.536;2024-01-15T08:50:12;7.13;;;4.30;;
51877;SDS011;37911;51.526;11.536;2024-01-15T08:53:15;5.88;;;4.53;;
51877;SDS011;37911;51.526;11.536;2024-01-15T08:56:18;12.20;;;3.05;;
51877;SDS011;37911;51.526;11.536;2024-01-15T08:59:22;5.18;;;3.75;;
51877;SDS011;37911;51.526;11.536;2024-01-15T09:02:28;12.40;;;3.10;;
51877;SDS011;37911;51.526;11.536;2024-01-15T09:05:32;6.72;;;3.63;;
51877;SDS011;37911;51.526;11.536;2024-01-15T09:08:35;6.03;;;3.72;;
51877;SDS011;37911;51.526;11.536;2024-01-15T09:11:39;4.65;;;3.47;;
51877;SDS011;37911;51.526;11.536;2024-01-15T09:14:42;4.25;;;3.85;;
51877;SDS011;37911;51.526;11.536;2024-01-15T09:17:48;6.03;;;2.80;;
51877;SDS011;37911;51.526;11.536;2024-01-15T09:20:51;5.13;;;3.47;;
51877;SDS011;37911;51.526;11.536;2024-01-15T09:23:54;7.22;;;4.15;;
51877;SDS011;37911;51.526;11.536;2024-01-15T09:26:58;6.00;;;4.07;;
51877;SDS011;37911;51.526;11.536;2024-01-15T09:30:02;6.45;;;4.78;;
51877;SDS011;37911;51.526;11.536;2024-01-15T09:33:09;5.65;;;4.72;;
51877;SDS011;37911;51.526;11.536;2024-01-15T09:36:12;6.18;;;4.63;;
51877;SDS011;37911;51.526;11.536;2024-01-15T09:39:16;6.75;;;4.50;;
51877;SDS011;37911;51.526;11.536;2024-01-15T09:42:19;3.78;;;3.10;;
51877;SDS011;37911;51.526;11.536;2024-01-15T09:45:23;5.07;;;3.95;;
51877;SDS011;37911;51.526;11.536;2024-01-15T09:48:29;4.57;;;3.15;;
51877;SDS011;37911;51.526;11.536;2024-01-15T09:51:34;6.47;;;3.65;;
51877;SDS011;37911;51.526;11.536;2024-01-15T09:54:38;6.53;;;3.47;;
51877;SDS011;37911;51.526;11.536;2024-01-15T09:57:43;5.93;;;4.70;;
51877;SDS011;37911;51.526;11.536;2024-01-15T10:00:47;5.20;;;3.50;;
51877;SDS011;37911;51.526;11.536;2024-01-15T10:03:54;8.00;;;3.50;;
51877;SDS011;37911;51.526;11.536;2024-01-15T10:06:58;5.78;;;4.13;;
51877;SDS011;37911;51.526;11.536;2024-01-15T10:10:03;4.05;;;3.13;;
51877;SDS011;37911;51.526;11.536;2024-01-15T10:13:07;3.67;;;3.38;;
51877;SDS011;37911;51.526;11.536;2024-01-15T10:16:11;6.40;;;5.90;;
51877;SDS011;37911;51.526;11.536;2024-01-15T10:19:17;8.38;;;3.35;;
51877;SDS011;37911;51.526;11.536;2024-01-15T10:22:21;4.35;;;2.67;;
51877;SDS011;37911;51.526;11.536;2024-01-15T10:25:24;4.18;;;2.45;;
51877;SDS011;37911;51.526;11.536;2024-01-15T10:28:28;5.50;;;5.03;;
51877;SDS011;37911;51.526;11.536;2024-01-15T10:31:32;4.50;;;3.42;;
51877;SDS011;37911;51.526;11.536;2024-01-15T10:34:40;4.88;;;3.95;;
51877;SDS011;37911;51.526;11.536;2024-01-15T10:37:43;6.97;;;3.40;;
51877;SDS011;37911;51.526;11.536;2024-01-15T10:40:47;3.83;;;2.60;;
51877;SDS011;37911;51.526;11.536;2024-01-15T10:43:50;4.63;;;3.38;;
51877;SDS011;37911;51.526;11.536;2024-01-15T10:46:53;5.60;;;3.28;;
51877;SDS011;37911;51.526;11.536;2024-01-15T10:50:00;4.35;;;2.97;;
51877;SDS011;37911;51.526;11.536;2024-01-15T10:53:04;5.82;;;2.88;;
51877;SDS011;37911;51.526;11.536;2024-01-15T10:56:08;10.32;;;2.78;;
51877;SDS011;37911;51.526;11.536;2024-01-15T10:59:13;11.48;;;3.88;;
51877;SDS011;37911;51.526;11.536;2024-01-15T11:02:16;4.95;;;4.53;;
51877;SDS011;37911;51.526;11.536;2024-01-15T11:05:23;5.60;;;3.70;;
51877;SDS011;37911;51.526;11.536;2024-01-15T11:08:27;3.45;;;2.97;;
51877;SDS011;37911;51.526;11.536;2024-01-15T11:11:31;5.38;;;3.08;;
51877;SDS011;37911;51.526;11.536;2024-01-15T11:14:38;4.13;;;2.53;;
51877;SDS011;37911;51.526;11.536;2024-01-15T11:17:59;3.22;;;2.60;;
51877;SDS011;37911;51.526;11.536;2024-01-15T11:24:33;4.10;;;2.92;;
51877;SDS011;37911;51.526;11.536;2024-01-15T11:27:41;7.75;;;3.20;;
51877;SDS011;37911;51.526;11.536;2024-01-15T11:30:45;3.97;;;2.95;;
51877;SDS011;37911;51.526;11.536;2024-01-15T11:33:49;4.32;;;2.35;;
51877;SDS011;37911;51.526;11.536;2024-01-15T11:37:04;4.75;;;2.83;;
51877;SDS011;37911;51.526;11.536;2024-01-15T11:40:07;4.25;;;2.97;;
51877;SDS011;37911;51.526;11.536;2024-01-15T11:43:12;6.07;;;3.67;;
51877;SDS011;37911;51.526;11.536;2024-01-15T11:46:20;3.95;;;3.15;;
51877;SDS011;37911;51.526;11.536;2024-01-15T11:49:26;7.18;;;4.10;;
51877;SDS011;37911;51.526;11.536;2024-01-15T11:55:58;4.10;;;3.65;;
51877;SDS011;37911;51.526;11.536;2024-01-15T11:59:02;4.25;;;3.38;;
51877;SDS011;37911;51.526;11.536;2024-01-15T12:02:06;8.63;;;3.70;;
51877;SDS011;37911;51.526;11.536;2024-01-15T12:05:12;5.45;;;3.80;;
51877;SDS011;37911;51.526;11.536;2024-01-15T12:08:23;4.40;;;2.92;;
51877;SDS011;37911;51.526;11.536;2024-01-15T12:11:27;11.18;;;6.10;;
51877;SDS011;37911;51.526;11.536;2024-01-15T12:14:34;5.32;;;3.63;;
51877;SDS011;37911;51.526;11.536;2024-01-15T12:17:38;7.75;;;3.20;;
51877;SDS011;37911;51.526;11.536;2024-01-15T12:20:42;5.03;;;2.90;;
51877;SDS011;37911;51.526;11.536;2024-01-15T12:23:49;2.92;;;1.90;;
51877;SDS011;37911;51.526;11.536;2024-01-15T12:26:54;3.83;;;2.22;;
51877;SDS011;37911;51.526;11.536;2024-01-15T12:29:58;3.63;;;2.90;;
51877;SDS011;37911;51.526;11.536;2024-01-15T12:33:01;4.10;;;2.42;;
51877;SDS011;37911;51.526;11.536;2024-01-15T12:36:06;4.18;;;2.47;;
51877;SDS011;37911;51.526;11.536;2024-01-15T12:39:13;3.30;;;2.33;;
51877;SDS011;37911;51.526;11.536;2024-01-15T12:42:17;2.92;;;2.35;;
51877;SDS011;37911;51.526;11.536;2024-01-15T12:45:20;4.35;;;2.75;;
51877;SDS011;37911;51.526;11.536;2024-01-15T12:48:23;5.53;;;2.28;;
51877;SDS011;37911;51.526;11.536;2024-01-15T12:51:27;3.90;;;2.95;;
51877;SDS011;37911;51.526;11.536;2024-01-15T12:54:33;3.40;;;2.40;;
51877;SDS011;37911;51.526;11.536;2024-01-15T12:57:36;4.28;;;2.40;;
51877;SDS011;37911;51.526;11.536;2024-01-15T13:00:40;4.45;;;2.75;;
51877;SDS011;37911;51.526;11.536;2024-01-15T13:03:43;4.32;;;2.55;;
51877;SDS011;37911;51.526;11.536;2024-01-15T13:06:46;4.18;;;2.10;;
51877;SDS011;37911;51.526;11.536;2024-01-15T13:09:52;4.18;;;2.70;;
51877;SDS011;37911;51.526;11.536;2024-01-15T13:12:56;2.95;;;2.17;;
51877;SDS011;37911;51.526;11.536;2024-01-15T13:16:02;4.55;;;2.55;;
51877;SDS011;37911;51.526;11.536;2024-01-15T13:19:09;3.03;;;2.50;;
51877;SDS011;37911;51.526;11.536;2024-01-15T13:22:13;5.20;;;3.03;;
51877;SDS011;37911;51.526;11.536;2024-01-15T13:25:19;4.18;;;2.78;;
51877;SDS011;37911;51.526;11.536;2024-01-15T13:28:22;7.63;;;3.53;;
51877;SDS011;37911;51.526;11.536;2024-01-15T13:31:25;6.60;;;3.42;;
51877;SDS011;37911;51.526;11.536;2024-01-15T13:34:29;3.60;;;3.30;;
51877;SDS011;37911;51.526;11.536;2024-01-15T13:37:32;3.47;;;2.60;;
51877;SDS011;37911;51.526;11.536;2024-01-15T13:40:39;3.42;;;2.78;;
51877;SDS011;37911;51.526;11.536;2024-01-15T13:43:45;6.28;;;4.53;;
51877;SDS011;37911;51.526;11.536;2024-01-15T13:46:48;2.45;;;2.03;;
51877;SDS011;37911;51.526;11.536;2024-01-15T13:49:52;3.97;;;2.08;;
51877;SDS011;37911;51.526;11.536;2024-01-15T13:52:56;1.92;;;1.75;;
51877;SDS011;37911;51.526;11.536;2024-01-15T13:56:02;2.08;;;1.85;;
51877;SDS011;37911;51.526;11.536;2024-01-15T13:59:05;5.07;;;3.35;;
51877;SDS011;37911;51.526;11.536;2024-01-15T14:02:09;4.50;;;2.50;;
51877;SDS011;37911;51.526;11.536;2024-01-15T14:05:12;7.45;;;3.42;;
51877;SDS011;37911;51.526;11.536;2024-01-15T14:08:16;4.00;;;3.20;;
51877;SDS011;37911;51.526;11.536;2024-01-15T14:11:22;3.53;;;2.10;;
51877;SDS011;37911;51.526;11.536;2024-01-15T14:14:25;5.50;;;3.55;;
51877;SDS011;37911;51.526;11.536;2024-01-15T14:17:29;3.58;;;2.42;;
51877;SDS011;37911;51.526;11.536;2024-01-15T14:20:32;4.47;;;2.58;;
51877;SDS011;37911;51.526;11.536;2024-01-15T14:23:36;5.25;;;3.60;;
51877;SDS011;37911;51.526;11.536;2024-01-15T14:26:41;4.20;;;3.20;;
51877;SDS011;37911;51.526;11.536;2024-01-15T14:29:45;3.85;;;2.63;;
51877;SDS011;37911;51.526;11.536;2024-01-15T14:32:49;4.13;;;1.70;;
51877;SDS011;37911;51.526;11.536;2024-01-15T14:35:52;7.60;;;3.85;;
51877;SDS011;37911;51.526;11.536;2024-01-15T14:38:56;5.63;;;3.13;;
51877;SDS011;37911;51.526;11.536;2024-01-15T14:42:02;7.10;;;3.95;;
51877;SDS011;37911;51.526;11.536;2024-01-15T14:45:06;5.47;;;4.22;;
51877;SDS011;37911;51.526;11.536;2024-01-15T14:48:11;7.88;;;3.47;;
51877;SDS011;37911;51.526;11.536;2024-01-15T14:51:15;3.50;;;2.75;;
51877;SDS011;37911;51.526;11.536;2024-01-15T14:54:19;3.92;;;2.70;;
51877;SDS011;37911;51.526;11.536;2024-01-15T14:57:25;3.58;;;2.63;;
51877;SDS011;37911;51.526;11.536;2024-01-15T15:00:28;2.33;;;1.88;;
51877;SDS011;37911;51.526;11.536;2024-01-15T15:03:32;3.10;;;1.65;;
51877;SDS011;37911;51.526;11.536;2024-01-15T15:06:35;6.65;;;2.85;;
51877;SDS011;37911;51.526;11.536;2024-01-15T15:09:39;3.88;;;2.90;;
51877;SDS011;37911;51.526;11.536;2024-01-15T15:12:45;2.45;;;1.90;;
51877;SDS011;37911;51.526;11.536;2024-01-15T15:15:48;3.03;;;2.38;;
51877;SDS011;37911;51.526;11.536;2024-01-15T15:18:51;8.15;;;5.85;;
51877;SDS011;37911;51.526;11.536;2024-01-15T15:21:55;3.25;;;2.15;;
51877;SDS011;37911;51.526;11.536;2024-01-15T15:24:58;2.33;;;1.65;;
51877;SDS011;37911;51.526;11.536;2024-01-15T15:28:05;3.40;;;1.95;;
51877;SDS011;37911;51.526;11.536;2024-01-15T15:31:08;5.47;;;2.78;;
51877;SDS011;37911;51.526;11.536;2024-01-15T15:34:12;4.13;;;3.03;;
51877;SDS011;37911;51.526;11.536;2024-01-15T15:37:15;2.10;;;1.77;;
51877;SDS011;37911;51.526;11.536;2024-01-15T15:40:19;3.25;;;2.67;;
51877;SDS011;37911;51.526;11.536;2024-01-15T15:43:26;3.05;;;2.20;;
51877;SDS011;37911;51.526;11.536;2024-01-15T15:46:29;5.93;;;2.75;;
51877;SDS011;37911;51.526;11.536;2024-01-15T15:49:33;4.30;;;2.47;;
51877;SDS011;37911;51.526;11.536;2024-01-15T15:52:36;3.42;;;2.80;;
51877;SDS011;37911;51.526;11.536;2024-01-15T15:55:39;4.90;;;3.08;;
51877;SDS011;37911;51.526;11.536;2024-01-15T15:58:46;2.92;;;2.40;;
51877;SDS011;37911;51.526;11.536;2024-01-15T16:01:49;4.40;;;2.35;;
51877;SDS011;37911;51.526;11.536;2024-01-15T16:04:53;6.75;;;2.88;;
51877;SDS011;37911;51.526;11.536;2024-01-15T16:07:57;5.65;;;3.03;;
51877;SDS011;37911;51.526;11.536;2024-01-15T16:11:01;4.25;;;2.33;;
51877;SDS011;37911;51.526;11.536;2024-01-15T16:14:06;5.10;;;3.25;;
51877;SDS011;37911;51.526;11.536;2024-01-15T16:17:10;3.22;;;1.83;;
51877;SDS011;37911;51.526;11.536;2024-01-15T16:20:13;3.88;;;2.08;;
51877;SDS011;37911;51.526;11.536;2024-01-15T16:23:17;3.10;;;2.42;;
51877;SDS011;37911;51.526;11.536;2024-01-15T16:26:20;3.97;;;3.13;;
51877;SDS011;37911;51.526;11.536;2024-01-15T16:29:27;3.67;;;2.60;;
51877;SDS011;37911;51.526;11.536;2024-01-15T16:32:30;3.13;;;2.13;;
51877;SDS011;37911;51.526;11.536;2024-01-15T16:35:33;3.20;;;2.53;;
51877;SDS011;37911;51.526;11.536;2024-01-15T16:38:37;4.22;;;2.83;;
51877;SDS011;37911;51.526;11.536;2024-01-15T16:41:40;3.35;;;2.55;;
51877;SDS011;37911;51.526;11.536;2024-01-15T16:44:46;4.88;;;2.88;;
51877;SDS011;37911;51.526;11.536;2024-01-15T16:47:49;3.65;;;2.78;;
51877;SDS011;37911;51.526;11.536;2024-01-15T16:50:53;5.60;;;2.65;;
51877;SDS011;37911;51.526;11.536;2024-01-15T16:53:56;2.47;;;2.20;;
51877;SDS011;37911;51.526;11.536;2024-01-15T16:57:02;3.35;;;2.97;;
51877;SDS011;37911;51.526;11.536;2024-01-15T17:00:09;6.07;;;2.80;;
51877;SDS011;37911;51.526;11.536;2024-01-15T17:03:13;4.55;;;3.97;;
51877;SDS011;37911;51.526;11.536;2024-01-15T17:06:17;3.20;;;2.10;;
51877;SDS011;37911;51.526;11.536;2024-01-15T17:09:20;2.70;;;2.50;;
51877;SDS011;37911;51.526;11.536;2024-01-15T17:12:23;4.43;;;3.95;;
51877;SDS011;37911;51.526;11.536;2024-01-15T17:15:29;5.65;;;3.55;;
51877;SDS011;37911;51.526;11.536;2024-01-15T17:18:33;5.05;;;3.53;;
51877;SDS011;37911;51.526;11.536;2024-01-15T17:21:36;4.25;;;2.90;;
51877;SDS011;37911;51.526;11.536;2024-01-15T17:24:39;3.25;;;2.95;;
51877;SDS011;37911;51.526;11.536;2024-01-15T17:27:43;4.93;;;2.72;;
51877;SDS011;37911;51.526;11.536;2024-01-15T17:30:48;2.92;;;2.25;;
51877;SDS011;37911;51.526;11.536;2024-01-15T17:33:52;5.32;;;2.58;;
51877;SDS011;37911;51.526;11.536;2024-01-15T17:36:55;2.83;;;2.42;;
51877;SDS011;37911;51.526;11.536;2024-01-15T17:39:59;3.25;;;2.08;;
51877;SDS011;37911;51.526;11.536;2024-01-15T17:43:04;2.70;;;2.33;;
51877;SDS011;37911;51.526;11.536;2024-01-15T17:46:11;6.43;;;2.83;;
51877;SDS011;37911;51.526;11.536;2024-01-15T17:49:14;3.03;;;2.13;;
51877;SDS011;37911;51.526;11.536;2024-01-15T17:52:18;3.42;;;2.30;;
51877;SDS011;37911;51.526;11.536;2024-01-15T17:55:21;2.83;;;2.63;;
51877;SDS011;37911;51.526;11.536;2024-01-15T17:58:26;11.57;;;6.32;;
51877;SDS011;37911;51.526;11.536;2024-01-15T18:01:33;3.40;;;2.78;;
51877;SDS011;37911;51.526;11.536;2024-01-15T18:04:36;3.67;;;3.42;;
51877;SDS011;37911;51.526;11.536;2024-01-15T18:07:39;3.40;;;2.70;;
51877;SDS011;37911;51.526;11.536;2024-01-15T18:10:43;7.45;;;3.78;;
51877;SDS011;37911;51.526;11.536;2024-01-15T18:13:46;3.08;;;2.63;;
51877;SDS011;37911;51.526;11.536;2024-01-15T18:16:52;4.22;;;2.65;;